createdAt,value
2018-01-02T00:02:02.767Z,1.10
2018-01-02T00:04:29.143Z,1.10
2018-01-02T00:06:56.263Z,1.20
2018-01-02T00:09:22.737Z,1.20
2018-01-02T00:11:49.131Z,1.30
2018-01-02T00:14:15.532Z,1.20
2018-01-02T00:16:42.007Z,1.10
2018-01-02T00:19:08.591Z,1.20
2018-01-02T00:21:34.970Z,0.90
2018-01-02T00:24:02.120Z,1.10
2018-01-02T00:26:28.487Z,1.10
2018-01-02T00:28:54.897Z,1.10
2018-01-02T00:31:22.075Z,1.20
2018-01-02T00:33:48.463Z,1.20
2018-01-02T00:36:14.837Z,1.20
2018-01-02T00:38:41.395Z,1.20
2018-01-02T00:41:07.765Z,1.20
2018-01-02T00:43:34.188Z,1.30
2018-01-02T00:46:00.582Z,1.20
2018-01-02T00:48:27.033Z,1.20
2018-01-02T00:50:53.431Z,1.20
2018-01-02T00:53:19.841Z,1.30
2018-01-02T00:55:46.982Z,1.40
2018-01-02T00:58:13.343Z,1.30
2018-01-02T01:00:39.774Z,1.30
2018-01-02T01:03:06.171Z,1.20
2018-01-02T01:05:32.562Z,1.30
2018-01-02T01:07:58.961Z,1.00
2018-01-02T01:10:26.070Z,1.40
2018-01-02T01:12:52.483Z,1.40
2018-01-02T01:15:18.875Z,1.50
2018-01-02T01:17:45.978Z,1.50
2018-01-02T01:20:12.358Z,1.40
2018-01-02T01:22:38.817Z,1.60
2018-01-02T01:25:05.186Z,1.70
2018-01-02T01:27:31.539Z,1.80
2018-01-02T01:29:58.672Z,1.90
2018-01-02T01:32:26.558Z,2.00
2018-01-02T01:34:53.747Z,2.10
2018-01-02T01:37:20.142Z,2.10
2018-01-02T01:39:47.242Z,2.20
2018-01-02T01:42:13.629Z,2.10
2018-01-02T01:44:40.798Z,2.20
2018-01-02T01:47:07.226Z,2.20
2018-01-02T01:49:33.607Z,2.30
2018-01-02T01:52:00.049Z,2.40
2018-01-02T01:54:26.413Z,2.30
2018-01-02T01:56:52.778Z,2.20
2018-01-02T01:59:19.205Z,2.20
2018-01-02T02:01:45.599Z,2.20
2018-01-02T02:04:12.723Z,2.20
2018-01-02T02:06:39.091Z,2.20
2018-01-02T02:09:05.460Z,2.10
2018-01-02T02:11:31.838Z,2.10
2018-01-02T02:13:59.014Z,2.20
2018-01-02T02:16:26.110Z,2.20
2018-01-02T02:18:52.511Z,2.20
2018-01-02T02:23:47.206Z,2.10
2018-01-02T02:26:13.565Z,2.20
2018-01-02T02:28:39.941Z,2.20
2018-01-02T02:31:07.070Z,2.10
2018-01-02T02:33:33.469Z,2.20
2018-01-02T02:35:59.840Z,2.20
2018-01-02T02:38:26.994Z,2.30
2018-01-02T02:41:08.201Z,2.30
2018-01-02T02:43:34.580Z,2.30
2018-01-02T02:46:01.007Z,2.20
2018-01-02T02:48:27.390Z,2.10
2018-01-02T02:50:54.505Z,2.20
2018-01-02T02:53:20.878Z,2.20
2018-01-02T02:55:47.268Z,2.30
2018-01-02T02:58:13.680Z,2.30
2018-01-02T03:00:40.136Z,2.40
2018-01-02T03:03:06.504Z,2.30
2018-01-02T03:05:32.878Z,2.30
2018-01-02T03:07:59.275Z,2.40
2018-01-02T03:10:25.666Z,2.40
2018-01-02T03:12:52.052Z,2.40
2018-01-02T03:15:18.434Z,2.10
2018-01-02T03:17:45.579Z,2.10
2018-01-02T03:20:11.959Z,2.10
2018-01-02T03:22:38.392Z,2.10
2018-01-02T03:25:04.837Z,2.10
2018-01-02T03:27:31.228Z,2.20
2018-01-02T03:29:58.354Z,2.30
2018-01-02T03:32:24.760Z,2.20
2018-01-02T03:34:51.144Z,2.30
2018-01-02T03:37:17.518Z,2.30
2018-01-02T03:39:43.925Z,2.30
2018-01-02T03:42:10.350Z,2.40
2018-01-02T03:44:36.731Z,2.40
2018-01-02T03:47:03.111Z,2.30
2018-01-02T03:49:29.512Z,2.30
2018-01-02T03:51:55.877Z,2.40
2018-01-02T03:54:22.294Z,2.40
2018-01-02T03:56:49.463Z,2.50
2018-01-02T03:59:15.882Z,2.40
2018-01-02T04:01:42.997Z,2.80
2018-01-02T04:04:09.396Z,2.70
2018-01-02T04:06:35.779Z,3.00
2018-01-02T04:09:02.178Z,3.20
2018-01-02T04:11:28.550Z,3.40
2018-01-02T04:13:55.673Z,3.70
2018-01-02T04:16:22.056Z,3.70
2018-01-02T04:18:48.435Z,3.80
2018-01-02T04:21:14.897Z,4.00
2018-01-02T04:23:42.010Z,4.30
2018-01-02T04:26:08.446Z,4.30
2018-01-02T04:28:34.926Z,4.50
2018-01-02T04:31:01.289Z,4.80
2018-01-02T04:33:27.678Z,4.90
2018-01-02T04:35:54.811Z,5.20
2018-01-02T04:38:21.194Z,5.20
2018-01-02T04:40:47.595Z,5.20
2018-01-02T04:43:14.700Z,5.20
2018-01-02T04:45:41.055Z,5.20
2018-01-02T04:48:07.419Z,5.10
2018-01-02T04:50:33.806Z,5.20
2018-01-02T04:53:00.200Z,5.10
2018-01-02T04:55:26.671Z,5.10
2018-01-02T04:57:53.054Z,5.20
2018-01-02T05:00:19.448Z,5.10
2018-01-02T05:02:45.805Z,5.10
2018-01-02T05:05:12.202Z,5.10
2018-01-02T05:07:38.584Z,5.20
2018-01-02T05:10:05.019Z,5.30
2018-01-02T05:12:31.398Z,5.40
2018-01-02T05:14:57.765Z,5.40
2018-01-02T05:17:24.865Z,5.50
2018-01-02T05:19:51.244Z,5.50
2018-01-02T05:22:17.637Z,5.60
2018-01-02T05:24:44.006Z,5.70
2018-01-02T05:27:10.475Z,5.60
2018-01-02T05:29:36.873Z,5.60
2018-01-02T05:32:04.032Z,5.50
2018-01-02T05:34:30.435Z,5.40
2018-01-02T05:36:57.576Z,5.30
2018-01-02T05:39:24.721Z,5.40
2018-01-02T05:41:51.090Z,5.40
2018-01-02T05:44:17.468Z,5.40
2018-01-02T05:46:43.848Z,5.40
2018-01-02T05:49:10.996Z,5.50
2018-01-02T05:51:38.122Z,5.40
2018-01-02T05:54:05.252Z,5.40
2018-01-02T05:56:31.661Z,5.40
2018-01-02T05:58:58.032Z,5.40
2018-01-02T06:01:25.898Z,5.10
2018-01-02T06:03:52.297Z,5.10
2018-01-02T06:06:18.693Z,5.10
2018-01-02T06:08:45.078Z,5.20
2018-01-02T06:11:11.474Z,5.10
2018-01-02T06:13:37.857Z,5.10
2018-01-02T06:16:04.976Z,5.20
2018-01-02T06:18:31.479Z,5.20
2018-01-02T06:20:57.845Z,5.10
2018-01-02T06:23:24.226Z,5.20
2018-01-02T06:25:51.393Z,5.40
2018-01-02T06:28:17.782Z,5.30
2018-01-02T06:30:45.712Z,5.30
2018-01-02T06:33:12.113Z,5.30
2018-01-02T06:35:38.490Z,5.40
2018-01-02T06:38:04.875Z,5.30
2018-01-02T06:40:31.255Z,5.20
2018-01-02T06:42:57.639Z,5.30
2018-01-02T06:45:24.735Z,5.30
2018-01-02T06:47:51.123Z,5.30
2018-01-02T06:50:17.513Z,5.20
2018-01-02T06:52:43.911Z,5.30
2018-01-02T06:55:10.281Z,5.20
2018-01-02T12:54:05.123Z,4.70
2018-01-02T12:56:31.507Z,4.90
2018-01-02T12:58:57.859Z,5.30
2018-01-02T13:01:24.236Z,5.90
2018-01-02T13:03:50.607Z,6.40
2018-01-02T13:06:16.994Z,6.80
2018-01-02T13:08:44.007Z,6.80
2018-01-02T13:11:10.399Z,7.00
2018-01-02T13:13:36.864Z,7.00
2018-01-02T13:16:03.264Z,6.80
2018-01-02T13:18:30.401Z,6.70
2018-01-02T13:20:57.547Z,6.50
2018-01-02T13:23:23.922Z,6.40
2018-01-02T13:25:50.310Z,6.20
2018-01-02T13:28:17.461Z,6.10
2018-01-02T13:30:43.866Z,6.10
2018-01-02T13:33:10.268Z,5.90
2018-01-02T13:35:36.633Z,5.80
2018-01-02T13:38:03.014Z,6.00
2018-01-02T13:40:29.373Z,5.90
2018-01-02T13:42:55.775Z,6.10
2018-01-02T13:45:22.162Z,6.30
2018-01-02T13:47:48.545Z,6.40
2018-01-02T13:50:14.919Z,6.50
2018-01-02T13:52:41.298Z,6.60
2018-01-02T13:55:08.415Z,6.80
2018-01-02T13:57:34.822Z,6.80
2018-01-02T14:00:01.202Z,6.80
2018-01-02T14:02:28.346Z,6.80
2018-01-02T14:04:55.489Z,6.70
2018-01-02T14:07:21.847Z,6.70
2018-01-02T14:09:48.209Z,6.80
2018-01-02T14:12:14.694Z,6.80
2018-01-02T14:14:41.817Z,6.90
2018-01-02T14:17:08.237Z,6.90
2018-01-02T14:19:34.648Z,7.00
2018-01-02T14:22:01.064Z,7.00
2018-01-02T14:24:27.470Z,6.90
2018-01-02T14:26:54.615Z,6.70
2018-01-02T14:29:21.774Z,6.80
2018-01-02T14:31:48.900Z,6.90
2018-01-02T14:34:15.281Z,6.80
2018-01-02T14:36:41.661Z,7.00
2018-01-02T14:39:08.055Z,6.90
2018-01-02T14:41:34.428Z,6.80
2018-01-02T14:44:00.858Z,6.70
2018-01-02T14:46:27.253Z,6.60
2018-01-02T14:48:53.739Z,6.60
2018-01-02T14:51:20.885Z,6.60
2018-01-02T14:53:48.749Z,6.60
2018-01-02T14:56:15.151Z,6.60
2018-01-02T14:58:41.536Z,6.70
2018-01-02T15:01:08.665Z,6.80
2018-01-02T15:03:36.519Z,6.80
2018-01-02T15:06:04.382Z,6.70
2018-01-02T15:08:30.755Z,6.70
2018-01-02T15:10:57.898Z,6.80
2018-01-02T15:13:24.364Z,6.70
2018-01-02T15:15:50.764Z,6.80
2018-01-02T15:18:18.031Z,6.60
2018-01-02T15:20:45.199Z,6.60
2018-01-02T15:23:11.586Z,6.60
2018-01-02T15:25:38.739Z,6.70
2018-01-02T15:28:05.823Z,6.60
2018-01-02T15:30:32.190Z,6.70
2018-01-02T15:32:58.570Z,6.80
2018-01-02T15:35:24.969Z,6.50
2018-01-02T15:37:52.126Z,6.30
2018-01-02T15:40:19.262Z,6.30
2018-01-02T15:42:45.656Z,6.30
2018-01-02T15:45:12.049Z,6.40
2018-01-02T15:47:39.167Z,6.40
2018-01-02T15:50:05.627Z,6.40
2018-01-02T15:52:32.759Z,6.40
2018-01-02T15:54:59.968Z,6.40
2018-01-02T15:57:26.353Z,6.40
2018-01-02T15:59:53.479Z,6.40
2018-01-02T16:02:19.862Z,6.30
2018-01-02T16:04:46.251Z,6.40
2018-01-02T16:07:13.391Z,6.20
2018-01-02T16:09:39.766Z,6.20
2018-01-02T16:12:06.938Z,6.20
2018-01-02T16:14:33.316Z,6.20
2018-01-02T16:16:59.694Z,5.90
2018-01-02T16:19:26.114Z,5.80
2018-01-02T16:21:52.519Z,5.80
2018-01-02T16:24:19.687Z,5.80
2018-01-02T16:26:46.822Z,5.80
2018-01-02T16:29:14.019Z,5.90
2018-01-02T16:31:40.418Z,5.90
2018-01-02T16:34:07.573Z,6.10
2018-01-02T16:36:33.991Z,6.10
2018-01-02T16:39:01.134Z,6.30
2018-01-02T16:41:28.995Z,6.30
2018-01-02T16:43:57.903Z,6.30
2018-01-02T16:46:25.054Z,6.20
2018-01-02T16:48:51.445Z,6.20
2018-01-02T16:51:18.303Z,6.30
2018-01-02T16:53:44.794Z,6.30
2018-01-02T16:56:11.222Z,6.40
2018-01-02T16:58:37.606Z,6.50
2018-01-02T17:01:05.302Z,6.40
2018-01-02T17:03:32.313Z,6.40
2018-01-02T17:05:58.692Z,6.40
2018-01-02T17:08:25.075Z,6.30
2018-01-02T17:10:52.985Z,6.30
2018-01-02T17:13:20.098Z,6.20
2018-01-02T17:15:47.250Z,6.40
2018-01-02T17:18:13.676Z,6.40
2018-01-02T17:20:41.571Z,6.50
2018-01-02T17:23:08.701Z,6.60
2018-01-02T17:25:35.079Z,6.50
2018-01-02T17:28:02.186Z,6.50
2018-01-02T17:30:28.624Z,6.50
2018-01-02T17:32:55.746Z,6.50
2018-01-02T17:35:22.139Z,6.40
2018-01-02T17:37:49.329Z,6.30
2018-01-02T17:40:15.716Z,6.30
2018-01-02T17:42:42.085Z,6.30
2018-01-02T17:45:08.454Z,6.40
2018-01-02T17:47:35.567Z,6.10
2018-01-02T17:50:01.980Z,6.10
2018-01-02T17:52:28.382Z,6.10
2018-01-02T17:54:54.801Z,6.00
2018-01-02T17:57:21.963Z,5.50
2018-01-02T17:59:48.338Z,5.50
2018-01-02T18:02:14.817Z,5.20
2018-01-02T18:04:41.986Z,4.70
2018-01-02T18:07:08.401Z,4.70
2018-01-02T18:09:35.541Z,5.00
2018-01-02T18:12:02.717Z,5.00
2018-01-02T18:14:29.104Z,5.00
2018-01-02T18:16:55.511Z,5.10
2018-01-02T18:19:21.894Z,5.00
2018-01-02T18:21:49.038Z,5.20
2018-01-02T18:24:16.191Z,5.20
2018-01-02T18:26:43.326Z,5.30
2018-01-02T18:29:10.451Z,5.30
2018-01-02T18:31:36.845Z,5.30
2018-01-02T18:34:03.268Z,5.20
2018-01-02T18:36:29.717Z,5.10
2018-01-02T18:38:56.180Z,5.20
2018-01-02T18:41:22.611Z,5.10
2018-01-02T18:43:49.022Z,5.00
2018-01-02T18:46:15.447Z,5.10
2018-01-02T18:48:41.885Z,5.20
2018-01-02T18:51:08.320Z,5.00
2018-01-02T18:53:34.734Z,4.80
2018-01-02T18:56:01.167Z,4.70
2018-01-02T18:58:27.598Z,4.60
2018-01-02T19:00:53.996Z,4.50
2018-01-02T19:03:21.659Z,4.40
2018-01-02T19:05:48.843Z,4.30
2018-01-02T19:08:15.260Z,4.30
2018-01-02T19:10:42.440Z,4.30
2018-01-02T19:13:09.132Z,4.20
2018-01-02T19:15:36.535Z,4.40
2018-01-02T19:18:02.955Z,4.50
2018-01-02T19:20:29.374Z,4.40
2018-01-02T19:22:55.814Z,4.40
2018-01-02T19:25:22.228Z,4.30
2018-01-02T19:27:49.465Z,4.20
2018-01-02T19:30:15.910Z,4.20
2018-01-02T19:32:42.377Z,4.20
2018-01-02T19:35:08.802Z,4.20
2018-01-02T19:37:35.257Z,4.20
2018-01-02T19:40:01.681Z,4.10
2018-01-02T19:42:28.213Z,4.20
2018-01-02T19:44:54.681Z,4.30
2018-01-02T19:47:21.115Z,4.40
2018-01-02T19:49:47.594Z,4.60
2018-01-02T19:52:14.014Z,4.80
2018-01-02T19:54:41.147Z,5.10
2018-01-02T19:57:08.267Z,5.00
2018-01-02T19:59:34.665Z,5.00
2018-01-02T20:02:01.051Z,5.20
2018-01-02T20:04:27.428Z,5.10
2018-01-02T20:06:53.822Z,5.00
2018-01-02T20:09:20.223Z,5.10
2018-01-02T20:11:46.614Z,5.00
2018-01-02T20:14:13.723Z,5.00
2018-01-02T20:16:40.114Z,5.00
2018-01-02T20:19:06.499Z,5.10
2018-01-02T20:21:32.896Z,4.90
2018-01-02T20:23:59.305Z,5.00
2018-01-02T20:26:25.735Z,5.10
2018-01-02T20:28:52.118Z,5.10
2018-01-02T20:31:18.535Z,4.90
2018-01-02T20:33:44.971Z,4.80
2018-01-02T20:36:11.396Z,4.80
2018-01-02T20:38:37.808Z,4.90
2018-01-02T20:41:04.229Z,5.00
2018-01-02T20:43:30.662Z,4.70
2018-01-02T20:45:57.837Z,4.40
2018-01-02T20:48:24.218Z,4.40
2018-01-02T20:50:51.357Z,4.30
2018-01-02T20:53:17.743Z,4.30
2018-01-02T20:55:44.474Z,4.40
2018-01-02T20:58:10.858Z,4.50
2018-01-02T21:00:37.273Z,4.50
2018-01-02T21:03:03.654Z,4.30
2018-01-02T21:05:30.872Z,4.20
2018-01-02T21:07:57.286Z,4.20
2018-01-02T21:10:23.705Z,4.30
2018-01-02T21:12:50.113Z,4.30
2018-01-02T21:15:16.494Z,4.20
2018-01-02T21:17:42.878Z,4.40
2018-01-02T21:20:09.274Z,4.50
2018-01-02T21:22:35.656Z,4.50
2018-01-02T21:25:02.047Z,4.60
2018-01-02T21:27:29.146Z,4.80
2018-01-02T21:29:55.517Z,4.70
2018-01-02T21:32:21.911Z,4.70
2018-01-02T21:34:48.289Z,4.80
2018-01-02T21:37:14.685Z,4.80
2018-01-02T21:39:41.057Z,4.70
2018-01-02T21:42:08.194Z,4.60
2018-01-02T21:44:35.330Z,4.50
2018-01-02T21:47:01.736Z,4.50
2018-01-02T21:49:29.088Z,4.40
2018-01-02T21:51:55.526Z,4.40
2018-01-02T21:54:21.909Z,4.20
2018-01-02T21:56:49.040Z,3.80
2018-01-02T21:59:15.414Z,3.80
2018-01-02T22:01:41.838Z,3.70
2018-01-02T22:04:08.271Z,3.60
2018-01-02T22:06:35.396Z,3.70
2018-01-02T22:09:02.595Z,3.50
2018-01-02T22:11:28.995Z,3.40
2018-01-02T22:13:56.119Z,3.30
2018-01-02T22:16:22.501Z,3.30
2018-01-02T22:18:48.905Z,3.20
2018-01-02T22:21:15.298Z,3.30
2018-01-02T22:23:41.732Z,3.20
2018-01-02T22:26:08.114Z,3.20
2018-01-02T22:28:34.518Z,3.20
2018-01-02T22:31:00.937Z,3.30
2018-01-02T22:33:27.335Z,3.30
2018-01-02T22:35:53.784Z,3.40
2018-01-02T22:38:20.151Z,3.30
2018-01-02T22:40:46.530Z,3.20
2018-01-02T22:43:12.927Z,3.20
2018-01-02T22:45:40.066Z,3.20
2018-01-02T22:48:07.202Z,3.20
2018-01-02T22:50:33.590Z,3.10
2018-01-02T22:53:00.064Z,3.10
2018-01-02T22:55:26.450Z,2.80
2018-01-02T22:57:53.698Z,2.60
2018-01-02T23:00:20.101Z,2.60
2018-01-02T23:02:47.225Z,2.50
2018-01-02T23:05:13.654Z,2.50
2018-01-02T23:07:40.036Z,2.60
2018-01-02T23:10:06.438Z,2.60
2018-01-02T23:12:32.829Z,2.50
2018-01-02T23:14:59.214Z,2.60
2018-01-02T23:17:26.343Z,2.60
2018-01-02T23:19:52.752Z,2.60
2018-01-02T23:22:19.138Z,2.70
2018-01-02T23:24:45.550Z,2.70
2018-01-02T23:27:12.669Z,3.00
2018-01-02T23:29:39.064Z,2.90
2018-01-02T23:32:05.478Z,3.00
2018-01-02T23:34:32.673Z,3.00
2018-01-02T23:36:59.067Z,3.00
2018-01-02T23:39:26.191Z,2.90
2018-01-02T23:41:52.566Z,2.90
2018-01-02T23:44:18.956Z,2.90
2018-01-02T23:46:45.349Z,2.90
2018-01-02T23:49:12.208Z,2.80
2018-01-02T23:51:38.598Z,2.80
2018-01-02T23:54:04.974Z,2.70
2018-01-02T23:56:32.121Z,2.90
2018-01-02T23:58:58.498Z,2.90
